createdAt,value
2023-02-06T00:02:28.294Z,2.26
2023-02-06T00:05:15.512Z,2.26
2023-02-06T00:08:01.775Z,2.24
2023-02-06T00:10:47.439Z,2.20
2023-02-06T00:13:33.270Z,2.19
2023-02-06T00:16:19.756Z,2.16
2023-02-06T00:19:05.582Z,2.18
2023-02-06T00:21:52.480Z,2.13
2023-02-06T00:24:40.708Z,2.13
2023-02-06T00:27:26.751Z,2.11
2023-02-06T00:30:12.923Z,2.07
2023-02-06T00:32:59.650Z,2.10
2023-02-06T00:35:45.489Z,2.07
2023-02-06T00:38:33.582Z,2.03
2023-02-06T00:41:19.394Z,1.99
2023-02-06T00:44:05.315Z,2.01
2023-02-06T00:46:51.081Z,2.01
2023-02-06T00:49:37.533Z,2.01
2023-02-06T00:52:23.278Z,2.05
2023-02-06T00:55:10.288Z,2.05
2023-02-06T00:57:56.169Z,2.07
2023-02-06T01:00:41.964Z,2.07
2023-02-06T01:03:27.953Z,2.01
2023-02-06T01:06:13.843Z,2.04
2023-02-06T01:08:59.663Z,2.05
2023-02-06T01:11:48.669Z,2.06
2023-02-06T01:14:34.422Z,2.04
2023-02-06T01:17:20.065Z,2.03
2023-02-06T01:20:06.466Z,2.04
2023-02-06T01:22:52.322Z,2.03
2023-02-06T01:25:38.165Z,2.01
2023-02-06T01:28:25.700Z,2.01
2023-02-06T01:31:12.069Z,2.01
2023-02-06T01:33:58.415Z,2.02
2023-02-06T01:36:44.358Z,2.01
2023-02-06T01:39:30.422Z,2.04
2023-02-06T01:42:16.647Z,2.01
2023-02-06T01:45:20.296Z,1.97
2023-02-06T01:48:07.035Z,1.98
2023-02-06T01:50:53.653Z,1.96
2023-02-06T01:53:40.156Z,1.97
2023-02-06T01:56:25.957Z,1.96
2023-02-06T01:59:11.788Z,1.96
2023-02-06T02:01:59.525Z,1.96
2023-02-06T02:04:45.240Z,1.95
2023-02-06T02:07:32.821Z,1.92
2023-02-06T02:10:18.915Z,1.89
2023-02-06T02:13:04.754Z,1.82
2023-02-06T02:15:53.139Z,1.74
2023-02-06T02:18:44.335Z,1.78
2023-02-06T02:21:49.142Z,1.77
2023-02-06T02:24:41.015Z,1.77
2023-02-06T02:27:41.995Z,1.72
2023-02-06T02:30:45.878Z,1.76
2023-02-06T02:33:36.246Z,1.75
2023-02-06T02:36:24.860Z,1.72
2023-02-06T02:39:13.178Z,1.70
2023-02-06T02:41:59.717Z,1.69
2023-02-06T02:44:47.283Z,1.64
2023-02-06T02:47:34.250Z,1.66
2023-02-06T02:50:20.042Z,1.66
2023-02-06T02:53:07.546Z,1.62
2023-02-06T02:55:53.616Z,1.62
2023-02-06T02:58:41.454Z,1.59
2023-02-06T03:01:28.080Z,1.48
2023-02-06T03:04:15.450Z,1.51
2023-02-06T03:07:04.544Z,1.50
2023-02-06T03:09:54.709Z,1.46
2023-02-06T03:12:42.881Z,1.43
2023-02-06T03:15:32.510Z,1.44
2023-02-06T03:18:19.692Z,1.42
2023-02-06T03:21:06.056Z,1.42
2023-02-06T03:23:52.817Z,1.38
2023-02-06T03:26:40.145Z,1.37
2023-02-06T03:29:26.030Z,1.33
2023-02-06T03:32:12.288Z,1.21
2023-02-06T03:34:59.133Z,1.26
2023-02-06T03:37:44.928Z,1.23
2023-02-06T03:40:31.034Z,1.24
2023-02-06T03:43:18.810Z,1.24
2023-02-06T03:46:05.421Z,1.25
2023-02-06T03:48:53.172Z,1.25
2023-02-06T03:51:40.147Z,1.26
2023-02-06T03:54:26.333Z,1.23
2023-02-06T03:57:13.383Z,1.25
2023-02-06T04:00:00.518Z,1.24
2023-02-06T04:02:47.367Z,1.17
2023-02-06T04:05:33.185Z,1.17
2023-02-06T04:08:19.433Z,1.13
2023-02-06T04:11:05.397Z,1.09
2023-02-06T04:13:51.039Z,1.07
2023-02-06T04:16:38.212Z,1.08
2023-02-06T04:19:24.029Z,1.07
2023-02-06T04:22:10.292Z,1.04
2023-02-06T04:24:56.402Z,0.96
2023-02-06T04:27:42.187Z,0.98
2023-02-06T04:30:27.985Z,0.95
2023-02-06T04:33:15.214Z,0.93
2023-02-06T04:36:01.114Z,0.88
2023-02-06T04:38:47.079Z,0.81
2023-02-06T04:41:32.806Z,0.84
2023-02-06T04:44:18.462Z,0.84
2023-02-06T04:47:04.241Z,0.79
2023-02-06T04:49:51.409Z,0.75
2023-02-06T04:52:37.331Z,0.70
2023-02-06T04:55:23.531Z,0.72
2023-02-06T04:58:09.517Z,0.68
2023-02-06T05:00:55.478Z,0.61
2023-02-06T05:03:41.460Z,0.58
2023-02-06T05:06:29.607Z,0.52
2023-02-06T05:09:15.427Z,0.52
2023-02-06T05:12:01.284Z,0.50
2023-02-06T05:14:47.097Z,0.42
2023-02-06T05:17:32.844Z,0.36
2023-02-06T05:20:19.642Z,0.38
2023-02-06T05:23:06.675Z,0.34
2023-02-06T05:25:53.135Z,0.32
2023-02-06T05:28:38.833Z,0.25
2023-02-06T05:31:25.251Z,0.20
2023-02-06T05:34:11.261Z,0.21
2023-02-06T05:36:56.960Z,0.17
2023-02-06T05:39:44.153Z,0.14
2023-02-06T05:42:29.984Z,0.07
2023-02-06T05:45:15.980Z,0.03
2023-02-06T05:48:01.833Z,0.01
2023-02-06T05:50:48.980Z,-0.01
2023-02-06T05:53:35.220Z,0.01
2023-02-06T05:56:22.689Z,-0.03
2023-02-06T05:59:08.446Z,-0.04
2023-02-06T06:01:54.251Z,-0.12
2023-02-06T06:04:40.206Z,-0.15
2023-02-06T06:07:26.337Z,-0.20
2023-02-06T06:10:12.141Z,-0.23
2023-02-06T06:12:59.821Z,-0.21
2023-02-06T06:15:45.740Z,-0.22
2023-02-06T06:18:31.509Z,-0.25
2023-02-06T06:21:17.736Z,-0.28
2023-02-06T06:24:03.917Z,-0.29
2023-02-06T06:26:49.737Z,-0.28
2023-02-06T06:29:36.960Z,-0.29
2023-02-06T06:32:23.201Z,-0.28
2023-02-06T06:38:11.234Z,-0.36
2023-02-06T06:40:56.936Z,-0.34
2023-02-06T06:43:43.159Z,-0.33
2023-02-06T06:46:30.551Z,-0.34
2023-02-06T06:49:16.722Z,-0.32
2023-02-06T06:52:03.645Z,-0.34
2023-02-06T06:54:52.308Z,-0.32
2023-02-06T06:57:38.637Z,-0.33
2023-02-06T07:00:24.782Z,-0.35
2023-02-06T07:03:12.601Z,-0.34
2023-02-06T07:05:58.497Z,-0.35
2023-02-06T07:08:44.478Z,-0.33
2023-02-06T07:11:30.248Z,-0.34
2023-02-06T07:14:16.265Z,-0.30
2023-02-06T07:17:01.982Z,-0.32
2023-02-06T07:19:51.419Z,-0.29
2023-02-06T07:22:37.077Z,-0.28
2023-02-06T07:25:23.066Z,-0.23
2023-02-06T07:28:09.018Z,-0.19
2023-02-06T07:30:54.972Z,-0.16
2023-02-06T07:33:40.754Z,-0.15
2023-02-06T07:36:27.851Z,-0.11
2023-02-06T07:39:13.658Z,-0.11
2023-02-06T07:41:59.508Z,-0.11
2023-02-06T07:44:51.728Z,-0.12
2023-02-06T07:47:37.570Z,-0.13
2023-02-06T07:50:24.297Z,-0.12
2023-02-06T07:53:11.278Z,-0.10
2023-02-06T07:55:57.134Z,-0.05
2023-02-06T07:58:43.080Z,-0.04
2023-02-06T08:01:28.924Z,-0.01
2023-02-06T08:04:14.805Z,0.02
2023-02-06T08:07:00.699Z,0.03
2023-02-06T08:09:47.897Z,0.06
2023-02-06T08:12:33.754Z,0.09
2023-02-06T08:15:19.518Z,0.15
2023-02-06T08:18:05.360Z,0.17
2023-02-06T08:20:51.233Z,0.23
2023-02-06T08:23:36.991Z,0.28
2023-02-06T08:26:24.237Z,0.33
2023-02-06T08:29:10.119Z,0.36
2023-02-06T08:31:56.066Z,0.40
2023-02-06T08:34:41.874Z,0.48
2023-02-06T08:37:27.898Z,0.57
2023-02-06T08:40:13.775Z,0.67
2023-02-06T08:43:01.101Z,0.72
2023-02-06T08:45:48.758Z,0.76
2023-02-06T08:48:34.713Z,0.85
2023-02-06T08:51:22.294Z,0.95
2023-02-06T08:54:09.055Z,1.05
2023-02-06T08:56:56.985Z,1.14
2023-02-06T08:59:44.734Z,1.23
2023-02-06T09:02:30.850Z,1.28
2023-02-06T09:05:17.110Z,1.33
2023-02-06T09:08:02.907Z,1.44
2023-02-06T09:10:48.720Z,1.54
2023-02-06T09:13:34.675Z,1.65
2023-02-06T09:16:22.147Z,1.71
2023-02-06T09:19:08.218Z,1.81
2023-02-06T09:21:54.105Z,1.86
2023-02-06T09:24:40.049Z,1.99
2023-02-06T09:27:25.963Z,2.07
2023-02-06T09:30:12.478Z,2.17
2023-02-06T09:33:00.097Z,2.27
2023-02-06T09:35:45.902Z,2.35
2023-02-06T09:38:31.916Z,2.41
2023-02-06T09:41:19.269Z,2.51
2023-02-06T09:44:06.648Z,2.57
2023-02-06T09:46:52.973Z,2.63
2023-02-06T09:49:40.938Z,2.71
2023-02-06T09:52:30.200Z,2.76
2023-02-06T09:55:18.564Z,2.79
2023-02-06T09:58:07.725Z,2.87
2023-02-06T10:00:54.518Z,2.89
2023-02-06T10:03:44.640Z,2.94
2023-02-06T10:06:33.411Z,3.00
2023-02-06T10:09:20.264Z,3.09
2023-02-06T10:12:07.091Z,3.14
2023-02-06T10:14:54.359Z,3.16
2023-02-06T10:17:42.876Z,3.22
2023-02-06T10:20:30.461Z,3.28
2023-02-06T10:23:19.510Z,3.31
2023-02-06T10:26:06.736Z,3.38
2023-02-06T10:28:53.550Z,3.42
2023-02-06T10:31:47.559Z,3.46
2023-02-06T10:34:40.431Z,3.53
2023-02-06T10:37:30.428Z,3.58
2023-02-06T10:40:23.119Z,3.59
2023-02-06T10:43:13.334Z,3.68
2023-02-06T10:46:01.718Z,3.72
2023-02-06T10:48:49.066Z,3.79
2023-02-06T10:51:36.156Z,3.85
2023-02-06T10:54:23.338Z,3.85
2023-02-06T10:57:13.780Z,3.87
2023-02-06T11:00:00.696Z,3.94
2023-02-06T11:02:58.169Z,3.94
2023-02-06T11:05:52.491Z,4.05
2023-02-06T11:08:40.340Z,4.07
2023-02-06T11:11:29.561Z,4.13
2023-02-06T11:14:17.972Z,4.11
2023-02-06T11:17:04.137Z,4.12
2023-02-06T11:19:50.744Z,4.19
2023-02-06T11:22:51.130Z,4.33
2023-02-06T11:25:39.212Z,4.35
2023-02-06T11:28:25.871Z,4.40
2023-02-06T11:31:13.476Z,4.42
2023-02-06T11:33:59.632Z,4.38
2023-02-06T11:36:45.711Z,4.43
2023-02-06T11:39:32.681Z,4.48
2023-02-06T11:42:19.862Z,4.56
2023-02-06T11:45:13.455Z,4.63
2023-02-06T11:48:00.786Z,4.85
2023-02-06T11:50:49.471Z,5.01
2023-02-06T11:53:35.397Z,5.05
2023-02-06T11:56:21.367Z,5.07
2023-02-06T11:59:10.680Z,5.10
2023-02-06T12:01:57.523Z,5.16
2023-02-06T12:04:44.603Z,5.20
2023-02-06T12:07:31.013Z,5.14
2023-02-06T12:10:17.316Z,5.10
2023-02-06T12:13:03.722Z,5.10
2023-02-06T12:15:51.022Z,5.12
2023-02-06T12:18:38.473Z,5.13
2023-02-06T12:21:27.306Z,5.14
2023-02-06T12:24:21.717Z,5.03
2023-02-06T12:27:17.800Z,5.10
2023-02-06T12:30:07.672Z,5.10
2023-02-06T12:32:54.833Z,5.01
2023-02-06T12:35:43.775Z,4.94
2023-02-06T12:38:32.505Z,4.95
2023-02-06T12:41:40.947Z,5.06
2023-02-06T12:44:28.127Z,5.07
2023-02-06T12:47:14.829Z,5.21
2023-02-06T12:50:01.717Z,5.19
2023-02-06T12:52:49.180Z,5.30
2023-02-06T12:55:37.929Z,5.39
2023-02-06T12:58:25.152Z,5.51
2023-02-06T13:01:30.718Z,5.58
2023-02-06T13:04:19.735Z,5.51
2023-02-06T13:07:06.378Z,5.60
2023-02-06T13:09:53.226Z,5.60
2023-02-06T13:12:40.224Z,5.66
2023-02-06T13:15:26.656Z,5.82
2023-02-06T13:18:36.827Z,5.84
2023-02-06T13:21:24.394Z,6.06
2023-02-06T13:24:15.218Z,6.27
2023-02-06T13:27:16.311Z,6.57
2023-02-06T13:30:16.953Z,6.78
2023-02-06T13:33:10.022Z,7.01
2023-02-06T13:35:57.106Z,7.29
2023-02-06T13:38:43.588Z,7.53
2023-02-06T13:41:30.522Z,7.66
2023-02-06T13:44:17.048Z,7.69
2023-02-06T13:47:24.862Z,7.33
2023-02-06T13:50:23.837Z,7.16
2023-02-06T13:53:16.177Z,7.02
2023-02-06T13:56:07.047Z,7.04
2023-02-06T13:58:53.524Z,6.92
2023-02-06T14:01:39.498Z,6.50
2023-02-06T14:04:27.651Z,6.40
2023-02-06T14:07:27.964Z,6.34
2023-02-06T14:10:35.209Z,6.34
2023-02-06T14:13:25.326Z,6.09
2023-02-06T14:16:17.087Z,5.73
2023-02-06T14:19:04.286Z,5.61
2023-02-06T14:21:52.962Z,5.55
2023-02-06T14:25:04.127Z,4.96
2023-02-06T14:27:57.534Z,4.75
2023-02-06T14:30:45.249Z,4.88
2023-02-06T14:33:42.271Z,4.95
2023-02-06T14:36:33.278Z,4.70
2023-02-06T14:39:36.269Z,4.37
2023-02-06T14:42:23.781Z,4.03
2023-02-06T14:45:21.910Z,4.27
2023-02-06T14:48:14.323Z,4.25
2023-02-06T14:51:00.437Z,4.19
2023-02-06T14:53:52.441Z,4.28
2023-02-06T14:56:39.761Z,4.28
2023-02-06T14:59:25.513Z,4.16
2023-02-06T15:02:14.731Z,4.18
2023-02-06T15:05:01.976Z,4.12
2023-02-06T15:07:48.513Z,4.02
2023-02-06T15:10:35.550Z,3.78
2023-02-06T15:13:23.197Z,3.77
2023-02-06T15:16:09.989Z,3.72
2023-02-06T15:19:10.373Z,3.62
2023-02-06T15:21:58.298Z,3.61
2023-02-06T15:24:52.953Z,3.56
2023-02-06T15:27:39.251Z,3.53
2023-02-06T15:30:26.564Z,3.45
2023-02-06T15:33:13.762Z,3.35
2023-02-06T15:36:00.166Z,3.35
2023-02-06T15:38:46.002Z,3.29
2023-02-06T15:41:32.120Z,3.22
2023-02-06T15:44:24.680Z,3.17
2023-02-06T15:47:13.650Z,3.15
2023-02-06T15:50:00.361Z,3.11
2023-02-06T15:52:47.362Z,3.07
2023-02-06T15:55:35.408Z,2.99
2023-02-06T15:58:21.344Z,2.98
2023-02-06T16:01:07.128Z,2.92
2023-02-06T16:03:56.451Z,2.87
2023-02-06T16:06:42.515Z,2.79
2023-02-06T16:09:28.332Z,2.70
2023-02-06T16:12:16.319Z,2.63
2023-02-06T16:15:03.663Z,2.55
2023-02-06T16:17:49.558Z,2.47
2023-02-06T16:20:40.115Z,2.37
2023-02-06T16:23:26.870Z,2.31
2023-02-06T16:26:15.544Z,2.22
2023-02-06T16:29:01.839Z,2.09
2023-02-06T16:31:54.185Z,1.96
2023-02-06T16:34:41.099Z,1.93
2023-02-06T16:37:29.027Z,1.83
2023-02-06T16:40:15.139Z,1.73
2023-02-06T16:43:01.271Z,1.68
2023-02-06T16:45:47.963Z,1.64
2023-02-06T16:48:33.910Z,1.55
2023-02-06T16:51:20.457Z,1.44
2023-02-06T16:54:08.390Z,1.39
2023-02-06T16:56:54.448Z,1.32
2023-02-06T16:59:40.266Z,1.24
2023-02-06T17:02:26.578Z,1.16
2023-02-06T17:05:12.871Z,1.06
2023-02-06T17:07:58.927Z,1.01
2023-02-06T17:10:46.664Z,0.89
2023-02-06T17:13:32.689Z,0.84
2023-02-06T17:16:19.234Z,0.78
2023-02-06T17:19:05.664Z,0.71
2023-02-06T17:21:51.413Z,0.65
2023-02-06T17:24:37.205Z,0.58
2023-02-06T17:27:24.464Z,0.51
2023-02-06T17:30:11.852Z,0.44
2023-02-06T17:32:57.563Z,0.37
2023-02-06T17:35:43.446Z,0.30
2023-02-06T17:38:29.362Z,0.23
2023-02-06T17:41:15.234Z,0.16
2023-02-06T17:44:02.499Z,0.08
2023-02-06T17:46:49.548Z,0.02
2023-02-06T17:49:35.402Z,-0.05
2023-02-06T17:52:21.252Z,-0.11
2023-02-06T17:55:07.640Z,-0.17
2023-02-06T17:57:53.978Z,-0.25
2023-02-06T18:00:41.210Z,-0.30
2023-02-06T18:03:27.050Z,-0.38
2023-02-06T18:06:13.331Z,-0.44
2023-02-06T18:08:59.734Z,-0.47
2023-02-06T18:11:45.425Z,-0.55
2023-02-06T18:14:31.336Z,-0.62
2023-02-06T18:17:18.650Z,-0.68
2023-02-06T18:20:04.917Z,-0.71
2023-02-06T18:22:50.537Z,-0.76
2023-02-06T18:25:39.082Z,-0.82
2023-02-06T18:28:25.057Z,-0.86
2023-02-06T18:31:20.750Z,-0.89
2023-02-06T18:34:08.776Z,-0.95
2023-02-06T18:36:55.383Z,-1.00
2023-02-06T18:39:41.261Z,-1.04
2023-02-06T18:42:45.088Z,-1.06
2023-02-06T18:45:34.337Z,-1.11
2023-02-06T18:48:19.983Z,-1.15
2023-02-06T18:51:08.744Z,-1.17
2023-02-06T18:53:54.705Z,-1.23
2023-02-06T18:56:40.456Z,-1.26
2023-02-06T18:59:26.753Z,-1.29
2023-02-06T19:02:13.227Z,-1.32
2023-02-06T19:04:59.598Z,-1.34
2023-02-06T19:07:50.528Z,-1.39
2023-02-06T19:10:36.659Z,-1.43
2023-02-06T19:13:22.814Z,-1.48
2023-02-06T19:16:09.344Z,-1.50
2023-02-06T19:18:55.536Z,-1.51
2023-02-06T19:21:41.416Z,-1.55
2023-02-06T19:24:30.546Z,-1.56
2023-02-06T19:27:16.412Z,-1.56
2023-02-06T19:30:02.265Z,-1.60
2023-02-06T19:32:48.693Z,-1.66
2023-02-06T19:35:34.964Z,-1.67
2023-02-06T19:38:21.613Z,-1.70
2023-02-06T19:41:09.257Z,-1.74
2023-02-06T19:43:55.911Z,-1.78
2023-02-06T19:46:42.010Z,-1.82
2023-02-06T19:49:27.928Z,-1.82
2023-02-06T19:52:14.406Z,-1.85
2023-02-06T19:55:00.482Z,-1.93
2023-02-06T19:57:47.644Z,-1.95
2023-02-06T20:00:33.530Z,-1.98
2023-02-06T20:03:19.289Z,-1.97
2023-02-06T20:06:05.857Z,-1.99
2023-02-06T20:08:51.835Z,-2.02
2023-02-06T20:11:37.928Z,-2.03
2023-02-06T20:14:25.808Z,-2.03
2023-02-06T20:17:12.086Z,-2.06
2023-02-06T20:19:59.098Z,-2.10
2023-02-06T20:22:45.091Z,-2.15
2023-02-06T20:25:31.240Z,-2.18
2023-02-06T20:28:17.489Z,-2.17
2023-02-06T20:31:09.294Z,-2.21
2023-02-06T20:33:55.941Z,-2.25
2023-02-06T20:36:42.610Z,-2.23
2023-02-06T20:39:28.802Z,-2.26
2023-02-06T20:42:17.243Z,-2.28
2023-02-06T20:45:03.346Z,-2.29
2023-02-06T20:47:50.414Z,-2.30
2023-02-06T20:50:36.720Z,-2.32
2023-02-06T20:53:22.988Z,-2.35
2023-02-06T20:56:09.662Z,-2.37
2023-02-06T20:58:56.268Z,-2.39
2023-02-06T21:01:42.593Z,-2.45
2023-02-06T21:04:32.310Z,-2.49
2023-02-06T21:07:20.438Z,-2.51
2023-02-06T21:10:06.699Z,-2.54
2023-02-06T21:12:52.758Z,-2.58
2023-02-06T21:15:38.460Z,-2.61
2023-02-06T21:18:24.679Z,-2.62
2023-02-06T21:21:12.583Z,-2.64
2023-02-06T21:23:58.668Z,-2.67
2023-02-06T21:26:44.969Z,-2.68
2023-02-06T21:29:30.784Z,-2.71
2023-02-06T21:32:16.639Z,-2.74
2023-02-06T21:35:02.558Z,-2.76
2023-02-06T21:37:49.633Z,-2.92
2023-02-06T21:40:35.546Z,-2.94
2023-02-06T21:43:21.415Z,-2.94
2023-02-06T21:46:07.274Z,-2.96
2023-02-06T21:48:53.725Z,-2.97
2023-02-06T21:51:39.598Z,-2.96
2023-02-06T21:54:26.766Z,-3.01
2023-02-06T21:57:12.680Z,-3.05
2023-02-06T21:59:58.430Z,-3.10
2023-02-06T22:02:44.276Z,-3.18
2023-02-06T22:05:30.208Z,-3.20
2023-02-06T22:08:16.425Z,-3.20
2023-02-06T22:11:09.907Z,-3.20
2023-02-06T22:14:05.421Z,-3.22
2023-02-06T22:16:52.303Z,-3.26
2023-02-06T22:19:56.073Z,-3.26
2023-02-06T22:22:44.654Z,-3.28
2023-02-06T22:25:30.451Z,-3.29
2023-02-06T22:28:22.983Z,-3.35
2023-02-06T22:31:11.953Z,-3.40
2023-02-06T22:34:06.902Z,-3.40
2023-02-06T22:36:52.778Z,-3.42
2023-02-06T22:39:38.731Z,-3.45
2023-02-06T22:42:24.602Z,-3.47
2023-02-06T22:45:11.948Z,-3.48
2023-02-06T22:47:58.025Z,-3.52
2023-02-06T22:50:44.008Z,-3.55
2023-02-06T22:53:29.211Z,-3.56
2023-02-06T22:56:31.211Z,-3.58
2023-02-06T22:59:18.132Z,-3.67
2023-02-06T23:02:05.656Z,-3.67
2023-02-06T23:04:51.748Z,-3.71
2023-02-06T23:07:37.635Z,-3.75
2023-02-06T23:10:23.460Z,-3.79
2023-02-06T23:13:09.343Z,-3.81
2023-02-06T23:15:55.581Z,-3.88
2023-02-06T23:18:43.047Z,-3.89
2023-02-06T23:21:28.775Z,-3.89
2023-02-06T23:24:14.810Z,-3.91
2023-02-06T23:27:01.055Z,-3.92
2023-02-06T23:29:46.650Z,-3.95
2023-02-06T23:32:32.943Z,-4.00
2023-02-06T23:35:20.134Z,-4.02
2023-02-06T23:38:06.342Z,-4.03
2023-02-06T23:40:52.209Z,-4.00
2023-02-06T23:43:38.204Z,-4.02
2023-02-06T23:46:24.563Z,-4.02
2023-02-06T23:49:10.976Z,-4.04
2023-02-06T23:51:58.309Z,-4.10
2023-02-06T23:54:44.038Z,-4.17
2023-02-06T23:57:29.940Z,-4.18
